logo
Search for airport 
image banner adimage banner adimage banner ad
image banner ad

EDKEL - Kell

Located in , Germany

ICAO - ED0247, IATA -

Data provided by Airmate  

General information

Coordinates: N49°37'17" E6°50'23"
Elevation is 1830 feet MSL.
 
View others Airports in Saarland

Operational data

Special qualification required
Current time UTC:
Current local time:
Weather at : ETAD - Spangdahlem Ab ( 41 km )
METAR: ETAD 171255Z AUTO 25006KT 9999 SCT085 22/14 A3016 RMK AO2 SLP202 T02200139 $
TAF: TAF ETAD 171200Z 1712/1818 27009KT 9999 SCT030 QNH3015INS BECMG 1718/1719 03006KT 9999 SCT030 BKN060 QNH3016INS BECMG 1722/1723 06006KT 9999 FEW040 QNH3019INS BECMG 1810/1811 11006KT 9999 BKN050 QNH3014INS TX23/1715Z TN14/1804Z
View NOTAMs / SUP AIP / TFR affecting this airport [VIEW]
Communications frequencies: [VIEW]

Runways:

RWY identifierQFULength (ft)Width (ft)SurfaceLDA (ft)
0551°328198GRASS2789
23231°328198GRASS2789

Airport contact information

Address: Germany

Satellite view of EDKEL